createdAt,value
2019-03-15T00:02:00.423Z,7.80
2019-03-15T00:04:31.341Z,7.80
2019-03-15T00:07:02.745Z,7.70
2019-03-15T00:09:33.942Z,7.70
2019-03-15T00:12:05.248Z,7.70
2019-03-15T00:14:36.423Z,7.60
2019-03-15T00:17:07.405Z,7.60
2019-03-15T00:19:39.047Z,7.60
2019-03-15T00:22:09.995Z,7.60
2019-03-15T00:24:41.147Z,7.60
2019-03-15T00:27:12.375Z,7.60
2019-03-15T00:29:43.511Z,7.60
2019-03-15T00:32:15.351Z,7.60
2019-03-15T00:34:46.763Z,7.50
2019-03-15T00:37:17.681Z,7.50
2019-03-15T00:39:48.815Z,7.50
2019-03-15T00:42:19.720Z,7.50
2019-03-15T00:44:50.854Z,7.50
2019-03-15T00:47:22.076Z,7.50
2019-03-15T00:49:53.739Z,7.50
2019-03-15T00:52:25.626Z,7.40
2019-03-15T00:54:56.747Z,7.40
2019-03-15T00:57:27.654Z,7.40
2019-03-15T00:59:58.547Z,7.30
2019-03-15T01:02:29.696Z,7.30
2019-03-15T01:05:02.098Z,7.30
2019-03-15T01:07:33.297Z,7.30
2019-03-15T01:10:04.843Z,7.30
2019-03-15T01:12:35.982Z,7.30
2019-03-15T01:15:07.279Z,7.30
2019-03-15T01:17:38.709Z,7.30
2019-03-15T01:20:09.993Z,7.40
2019-03-15T01:22:41.127Z,7.40
2019-03-15T01:25:12.328Z,7.40
2019-03-15T01:27:43.363Z,7.40
2019-03-15T01:30:14.571Z,7.30
2019-03-15T01:32:45.712Z,7.30
2019-03-15T01:35:16.858Z,7.30
2019-03-15T01:37:48.020Z,7.20
2019-03-15T01:40:19.668Z,7.20
2019-03-15T01:42:50.807Z,7.20
2019-03-15T01:45:22.209Z,7.20
2019-03-15T01:47:53.363Z,7.20
2019-03-15T01:50:24.546Z,7.20
2019-03-15T01:52:55.823Z,7.20
2019-03-15T01:55:27.471Z,7.20
2019-03-15T01:57:58.878Z,7.20
2019-03-15T02:00:30.092Z,7.30
2019-03-15T02:03:06.596Z,7.30
2019-03-15T02:05:38.256Z,7.30
2019-03-15T02:08:11.984Z,7.20
2019-03-15T02:10:45.861Z,7.20
2019-03-15T02:13:21.615Z,7.20
2019-03-15T02:16:03.809Z,7.20
2019-03-15T02:18:39.231Z,7.10
2019-03-15T02:21:10.408Z,7.10
2019-03-15T02:23:41.559Z,7.10
2019-03-15T02:26:12.941Z,7.10
2019-03-15T02:28:44.080Z,7.10
2019-03-15T02:31:14.967Z,7.10
2019-03-15T02:33:46.116Z,7.10
2019-03-15T02:36:17.974Z,7.20
2019-03-15T02:38:49.131Z,7.20
2019-03-15T02:41:20.086Z,7.20
2019-03-15T02:43:51.262Z,7.20
2019-03-15T02:46:22.139Z,7.30
2019-03-15T02:48:53.043Z,7.30
2019-03-15T02:51:23.928Z,7.30
2019-03-15T02:53:56.068Z,7.30
2019-03-15T02:56:28.182Z,7.30
2019-03-15T02:58:59.334Z,7.30
2019-03-15T03:01:30.225Z,7.30
2019-03-15T03:04:01.368Z,7.30
2019-03-15T03:06:32.782Z,7.30
2019-03-15T03:09:05.513Z,7.30
2019-03-15T03:11:36.907Z,7.30
2019-03-15T03:14:08.313Z,7.40
2019-03-15T03:16:39.277Z,7.40
2019-03-15T03:19:10.432Z,7.40
2019-03-15T03:21:42.234Z,7.40
2019-03-15T03:24:13.324Z,7.40
2019-03-15T03:26:44.478Z,7.40
2019-03-15T03:29:15.612Z,7.40
2019-03-15T03:31:46.983Z,7.50
2019-03-15T03:34:17.875Z,7.50
2019-03-15T03:36:49.004Z,7.50
2019-03-15T03:39:20.418Z,7.50
2019-03-15T03:41:51.567Z,7.50
2019-03-15T03:44:22.986Z,7.50
2019-03-15T03:46:54.175Z,7.50
2019-03-15T03:49:25.331Z,7.60
2019-03-15T03:51:56.557Z,7.70
2019-03-15T03:54:27.591Z,7.70
2019-03-15T03:56:58.552Z,7.70
2019-03-15T03:59:29.519Z,7.70
2019-03-15T04:02:00.403Z,7.70
2019-03-15T04:04:31.723Z,7.70
2019-03-15T04:07:02.930Z,7.70
2019-03-15T04:09:33.830Z,7.60
2019-03-15T04:12:04.806Z,7.60
2019-03-15T04:14:35.962Z,7.60
2019-03-15T04:17:06.847Z,7.60
2019-03-15T04:19:38.059Z,7.60
2019-03-15T04:22:09.195Z,7.50
2019-03-15T04:24:40.729Z,7.50
2019-03-15T04:27:11.614Z,7.50
2019-03-15T04:29:42.775Z,7.60
2019-03-15T04:32:14.276Z,7.60
2019-03-15T04:34:45.445Z,7.60
2019-03-15T04:37:17.615Z,7.50
2019-03-15T04:39:48.759Z,7.50
2019-03-15T04:42:19.647Z,7.50
2019-03-15T04:44:51.019Z,7.50
2019-03-15T04:47:21.907Z,7.40
2019-03-15T04:49:52.807Z,7.40
2019-03-15T04:52:24.208Z,7.40
2019-03-15T04:54:55.615Z,7.40
2019-03-15T04:57:27.763Z,7.40
2019-03-15T04:59:58.892Z,7.40
2019-03-15T05:02:29.787Z,7.40
2019-03-15T05:05:01.205Z,7.40
2019-03-15T05:07:32.402Z,7.40
2019-03-15T05:10:03.804Z,7.40
2019-03-15T05:12:34.699Z,7.40
2019-03-15T05:15:06.112Z,7.40
2019-03-15T05:17:37.256Z,7.40
2019-03-15T05:20:08.579Z,7.40
2019-03-15T05:22:41.803Z,7.50
2019-03-15T05:25:16.598Z,7.50
2019-03-15T05:27:49.484Z,7.50
2019-03-15T05:30:20.624Z,7.50
2019-03-15T05:32:51.759Z,7.50
2019-03-15T05:35:22.935Z,7.40
2019-03-15T05:37:54.071Z,7.40
2019-03-15T05:40:24.979Z,7.40
2019-03-15T05:42:56.111Z,7.40
2019-03-15T05:45:27.255Z,7.40
2019-03-15T05:47:58.438Z,7.40
2019-03-15T05:50:29.593Z,7.40
2019-03-15T05:53:00.735Z,7.50
2019-03-15T05:55:32.003Z,7.50
2019-03-15T05:58:03.616Z,7.50
2019-03-15T06:00:35.967Z,7.50
2019-03-15T06:03:08.222Z,7.60
2019-03-15T06:05:39.347Z,7.60
2019-03-15T06:08:10.506Z,7.60
2019-03-15T06:10:41.416Z,7.60
2019-03-15T06:13:12.299Z,7.60
2019-03-15T06:15:43.688Z,7.60
2019-03-15T06:18:14.916Z,7.60
2019-03-15T06:20:45.818Z,7.60
2019-03-15T06:23:17.269Z,7.60
2019-03-15T06:25:48.403Z,7.60
2019-03-15T06:28:19.789Z,7.60
2019-03-15T06:30:50.923Z,7.60
2019-03-15T06:33:22.076Z,7.60
2019-03-15T06:35:53.219Z,7.70
2019-03-15T06:38:24.591Z,7.60
2019-03-15T06:40:55.739Z,7.70
2019-03-15T06:43:27.113Z,7.70
2019-03-15T06:45:58.251Z,7.70
2019-03-15T06:48:29.400Z,7.70
2019-03-15T06:51:00.821Z,7.70
2019-03-15T06:53:31.932Z,7.70
2019-03-15T06:56:03.420Z,7.70
2019-03-15T06:58:36.303Z,7.70
2019-03-15T07:01:07.833Z,7.70
2019-03-15T07:03:38.966Z,7.60
2019-03-15T07:06:10.358Z,7.60
2019-03-15T07:08:42.926Z,7.60
2019-03-15T07:11:14.069Z,7.60
2019-03-15T07:13:45.192Z,7.60
2019-03-15T07:16:16.461Z,7.60
2019-03-15T07:18:47.560Z,7.60
2019-03-15T07:21:18.872Z,7.60
2019-03-15T07:23:50.029Z,7.60
2019-03-15T07:26:21.137Z,7.60
2019-03-15T07:28:52.252Z,7.60
2019-03-15T07:31:23.388Z,7.60
2019-03-15T07:33:54.515Z,7.60
2019-03-15T07:36:25.871Z,7.50
2019-03-15T07:38:57.182Z,7.50
2019-03-15T07:41:28.063Z,7.50
2019-03-15T07:43:59.203Z,7.50
2019-03-15T07:46:30.327Z,7.50
2019-03-15T07:49:01.709Z,7.50
2019-03-15T07:51:32.835Z,7.60
2019-03-15T07:54:03.972Z,7.60
2019-03-15T07:56:35.107Z,7.60
2019-03-15T07:59:07.920Z,7.60
2019-03-15T08:01:39.129Z,7.60
2019-03-15T08:04:16.707Z,7.60
2019-03-15T08:06:43.472Z,7.60
2019-03-15T08:09:17.943Z,7.60
2019-03-15T08:11:49.180Z,7.60
2019-03-15T08:14:29.251Z,7.70
2019-03-15T08:17:02.476Z,7.70
2019-03-15T08:19:34.565Z,7.70
2019-03-15T08:22:06.079Z,7.80
2019-03-15T08:24:50.625Z,7.80
2019-03-15T08:27:10.755Z,7.80
2019-03-15T08:29:42.175Z,7.80
2019-03-15T08:32:13.388Z,7.90
2019-03-15T08:34:45.099Z,8.00
2019-03-15T08:37:16.003Z,8.10
2019-03-15T08:39:47.148Z,8.10
2019-03-15T08:42:18.299Z,8.10
2019-03-15T08:44:49.189Z,8.20
2019-03-15T08:47:21.742Z,8.30
2019-03-15T08:49:53.352Z,8.30
2019-03-15T08:52:24.284Z,8.40
2019-03-15T08:55:05.082Z,8.40
2019-03-15T08:57:28.872Z,8.50
2019-03-15T09:00:00.017Z,8.50
2019-03-15T09:02:31.730Z,8.60
2019-03-15T09:05:02.881Z,8.70
2019-03-15T09:07:37.940Z,8.70
2019-03-15T09:10:21.830Z,8.80
2019-03-15T09:12:43.868Z,8.90
2019-03-15T09:15:15.175Z,8.90
2019-03-15T09:17:46.148Z,9.00
2019-03-15T09:20:17.338Z,9.10
2019-03-15T09:22:48.486Z,9.20
2019-03-15T09:25:20.827Z,9.30
2019-03-15T09:27:52.097Z,9.40
2019-03-15T09:30:24.326Z,9.60
2019-03-15T09:32:55.576Z,9.70
2019-03-15T09:35:26.699Z,9.80
2019-03-15T09:37:58.083Z,9.90
2019-03-15T09:40:28.971Z,10.10
2019-03-15T09:43:00.196Z,10.20
2019-03-15T09:45:31.123Z,10.30
2019-03-15T09:48:02.524Z,10.40
2019-03-15T09:50:49.735Z,10.50
2019-03-15T09:53:06.561Z,10.50
2019-03-15T09:55:37.704Z,10.60
2019-03-15T09:58:08.631Z,10.70
2019-03-15T10:00:39.860Z,10.80
2019-03-15T10:03:21.691Z,10.90
2019-03-15T10:05:43.840Z,11.00
2019-03-15T10:08:14.747Z,11.00
2019-03-15T10:10:48.934Z,11.10
2019-03-15T10:13:18.743Z,11.10
2019-03-15T10:15:50.230Z,11.10
2019-03-15T10:18:22.732Z,11.20
2019-03-15T10:20:53.624Z,11.30
2019-03-15T10:23:24.762Z,11.40
2019-03-15T10:25:55.888Z,11.40
2019-03-15T10:28:27.052Z,11.50
2019-03-15T10:30:58.423Z,11.50
2019-03-15T10:33:29.567Z,11.60
2019-03-15T10:36:00.727Z,11.70
2019-03-15T10:38:31.876Z,11.80
2019-03-15T10:41:02.993Z,11.80
2019-03-15T10:43:34.139Z,11.90
2019-03-15T10:46:06.282Z,11.90
2019-03-15T10:48:37.700Z,11.90
2019-03-15T10:51:08.855Z,12.00
2019-03-15T10:53:40.105Z,12.00
2019-03-15T10:56:11.251Z,12.00
2019-03-15T10:58:43.643Z,12.00
2019-03-15T11:01:14.783Z,12.00
2019-03-15T11:03:45.703Z,11.90
2019-03-15T11:06:16.857Z,11.80
2019-03-15T11:08:48.010Z,11.70
2019-03-15T11:11:20.551Z,11.60
2019-03-15T11:13:51.715Z,11.60
2019-03-15T11:16:22.880Z,11.50
2019-03-15T11:18:53.799Z,11.50
2019-03-15T11:21:24.944Z,11.50
2019-03-15T11:23:56.345Z,11.50
2019-03-15T11:26:27.501Z,11.50
2019-03-15T11:28:58.630Z,11.50
2019-03-15T11:31:29.752Z,11.40
2019-03-15T11:34:00.983Z,11.50
2019-03-15T11:36:31.866Z,11.50
2019-03-15T11:39:03.103Z,11.50
2019-03-15T11:41:34.231Z,11.50
2019-03-15T11:44:05.457Z,11.50
2019-03-15T11:46:37.995Z,11.50
2019-03-15T11:49:09.408Z,11.50
2019-03-15T11:51:42.505Z,11.40
2019-03-15T11:54:13.154Z,11.40
2019-03-15T11:56:44.302Z,11.30
2019-03-15T11:59:15.488Z,11.30
2019-03-15T12:01:47.639Z,11.30
2019-03-15T12:04:18.828Z,11.40
2019-03-15T12:06:50.217Z,11.40
2019-03-15T12:09:22.839Z,11.40
2019-03-15T12:11:54.094Z,11.50
2019-03-15T12:14:25.211Z,11.50
2019-03-15T12:16:56.823Z,11.50
2019-03-15T12:19:27.815Z,11.50
2019-03-15T12:22:06.223Z,11.60
2019-03-15T12:24:31.799Z,11.50
2019-03-15T12:27:03.021Z,11.50
2019-03-15T12:29:34.268Z,11.50
2019-03-15T12:32:05.154Z,11.50
2019-03-15T12:34:36.379Z,11.40
2019-03-15T12:37:07.535Z,11.40
2019-03-15T12:39:38.717Z,11.40
2019-03-15T12:42:09.883Z,11.50
2019-03-15T12:44:41.319Z,11.50
2019-03-15T12:47:12.223Z,11.60
2019-03-15T12:49:43.355Z,11.60
2019-03-15T12:52:14.532Z,11.60
2019-03-15T12:54:45.669Z,11.60
2019-03-15T12:57:17.051Z,11.60
2019-03-15T12:59:47.943Z,11.50
2019-03-15T13:02:20.369Z,11.10
2019-03-15T13:04:52.201Z,10.80
2019-03-15T13:07:23.943Z,10.60
2019-03-15T13:09:55.087Z,10.40
2019-03-15T13:12:27.687Z,10.20
2019-03-15T13:14:58.823Z,10.00
2019-03-15T13:17:29.951Z,9.90
2019-03-15T13:20:01.390Z,9.90
2019-03-15T13:22:32.520Z,9.80
2019-03-15T13:25:03.819Z,9.80
2019-03-15T13:27:35.691Z,9.80
2019-03-15T13:30:07.119Z,9.80
2019-03-15T13:32:38.110Z,9.70
2019-03-15T13:35:10.756Z,9.70
2019-03-15T13:37:43.150Z,9.80
2019-03-15T13:40:14.468Z,9.80
2019-03-15T13:42:45.944Z,9.70
2019-03-15T13:45:17.276Z,9.80
2019-03-15T13:47:49.006Z,9.80
2019-03-15T13:50:19.908Z,9.80
2019-03-15T13:52:50.795Z,9.80
2019-03-15T13:55:21.935Z,9.80
2019-03-15T13:57:53.077Z,9.80
2019-03-15T14:00:24.250Z,9.90
2019-03-15T14:02:55.376Z,9.90
2019-03-15T14:05:26.759Z,10.00
2019-03-15T14:08:06.970Z,10.00
2019-03-15T14:10:31.119Z,10.10
2019-03-15T14:13:03.315Z,10.10
2019-03-15T14:15:34.228Z,10.20
2019-03-15T14:18:06.044Z,10.30
2019-03-15T14:20:38.088Z,10.30
2019-03-15T14:23:09.233Z,10.40
2019-03-15T14:25:40.539Z,10.40
2019-03-15T14:28:11.777Z,10.50
2019-03-15T14:30:43.051Z,10.60
2019-03-15T14:33:13.941Z,10.70
2019-03-15T14:35:44.848Z,10.70
2019-03-15T14:38:16.990Z,10.80
2019-03-15T14:40:48.188Z,10.90
2019-03-15T14:43:19.604Z,10.90
2019-03-15T14:45:51.119Z,11.00
2019-03-15T14:48:22.127Z,11.00
2019-03-15T14:50:53.342Z,11.10
2019-03-15T14:53:24.507Z,11.20
2019-03-15T14:55:55.647Z,11.20
2019-03-15T14:58:27.003Z,11.20
2019-03-15T15:00:58.147Z,11.20
2019-03-15T15:03:29.307Z,11.10
2019-03-15T15:06:00.675Z,11.20
2019-03-15T15:08:32.087Z,11.20
2019-03-15T15:11:03.058Z,11.20
2019-03-15T15:13:34.511Z,11.20
2019-03-15T15:16:05.735Z,11.10
2019-03-15T15:18:36.892Z,11.10
2019-03-15T15:21:08.142Z,11.10
2019-03-15T15:23:39.339Z,11.00
2019-03-15T15:26:12.301Z,11.00
2019-03-15T15:28:43.455Z,10.90
2019-03-15T15:31:14.362Z,10.90
2019-03-15T15:33:46.093Z,10.90
2019-03-15T15:36:17.503Z,10.90
2019-03-15T15:38:48.404Z,10.90
2019-03-15T15:41:19.424Z,10.80
2019-03-15T15:43:51.179Z,10.80
2019-03-15T15:46:22.403Z,10.80
2019-03-15T15:48:53.539Z,10.80
2019-03-15T15:51:25.380Z,10.80
2019-03-15T15:53:56.363Z,10.80
2019-03-15T15:56:28.787Z,10.80
2019-03-15T15:59:02.801Z,10.80
2019-03-15T16:01:32.358Z,10.80
2019-03-15T16:04:03.911Z,10.70
2019-03-15T16:06:34.832Z,10.70
2019-03-15T16:09:08.545Z,10.70
2019-03-15T16:11:39.695Z,10.60
2019-03-15T16:14:10.879Z,10.60
2019-03-15T16:16:41.787Z,10.60
2019-03-15T16:19:12.953Z,10.50
2019-03-15T16:21:44.115Z,10.40
2019-03-15T16:24:15.252Z,10.40
2019-03-15T16:26:46.689Z,10.30
2019-03-15T16:29:17.908Z,10.30
2019-03-15T16:31:49.091Z,10.20
2019-03-15T16:34:22.035Z,10.20
2019-03-15T16:36:53.219Z,10.20
2019-03-15T16:39:24.498Z,10.10
2019-03-15T16:41:55.739Z,10.10
2019-03-15T16:44:26.643Z,10.20
2019-03-15T16:46:57.952Z,10.20
2019-03-15T16:49:28.839Z,10.20
2019-03-15T16:52:00.123Z,10.20
2019-03-15T16:54:31.279Z,10.20
2019-03-15T16:57:02.185Z,10.20
2019-03-15T16:59:33.144Z,10.20
2019-03-15T17:02:04.200Z,10.10
2019-03-15T17:04:35.101Z,10.00
2019-03-15T17:07:06.260Z,10.00
2019-03-15T17:09:37.473Z,9.90
2019-03-15T17:12:08.878Z,9.80
2019-03-15T17:14:41.439Z,9.70
2019-03-15T17:17:12.573Z,9.70
2019-03-15T17:19:44.603Z,9.60
2019-03-15T17:22:15.747Z,9.60
2019-03-15T17:24:47.371Z,9.50
2019-03-15T17:27:18.496Z,9.50
2019-03-15T17:29:49.624Z,9.40
2019-03-15T17:32:20.755Z,9.40
2019-03-15T17:34:51.880Z,9.30
2019-03-15T17:37:22.778Z,9.20
2019-03-15T17:39:54.268Z,9.20
2019-03-15T17:42:25.504Z,9.10
2019-03-15T17:44:56.630Z,9.10
2019-03-15T17:47:27.759Z,9.10
2019-03-15T17:49:58.879Z,9.00
2019-03-15T17:52:30.096Z,9.00
2019-03-15T17:55:00.995Z,8.90
2019-03-15T17:57:32.580Z,8.90
2019-03-15T18:00:29.747Z,8.90
2019-03-15T18:03:00.899Z,8.90
2019-03-15T18:05:32.040Z,8.80
2019-03-15T18:08:03.412Z,8.80
2019-03-15T18:10:34.647Z,8.80
2019-03-15T18:13:05.926Z,8.70
2019-03-15T18:15:37.152Z,8.70
2019-03-15T18:18:08.399Z,8.70
2019-03-15T18:20:39.294Z,8.60
2019-03-15T18:23:10.567Z,8.60
2019-03-15T18:25:41.631Z,8.60
2019-03-15T18:28:12.802Z,8.50
2019-03-15T18:30:44.111Z,8.50
2019-03-15T18:33:15.250Z,8.50
2019-03-15T18:35:46.161Z,8.40
2019-03-15T18:38:17.119Z,8.40
2019-03-15T18:40:48.519Z,8.40
2019-03-15T18:43:19.913Z,8.40
2019-03-15T18:45:51.570Z,8.40
2019-03-15T18:48:22.748Z,8.40
2019-03-15T18:50:54.184Z,8.40
2019-03-15T18:53:25.645Z,8.40
2019-03-15T18:55:56.601Z,8.40
2019-03-15T18:58:27.937Z,8.40
2019-03-15T19:00:58.965Z,8.30
2019-03-15T19:03:30.172Z,8.30
2019-03-15T19:06:01.251Z,8.30
2019-03-15T19:08:33.932Z,8.30
2019-03-15T19:11:05.223Z,8.20
2019-03-15T19:13:37.899Z,8.20
2019-03-15T19:16:19.534Z,8.20
2019-03-15T19:18:43.852Z,8.20
2019-03-15T19:21:19.464Z,8.20
2019-03-15T19:23:51.661Z,8.20
2019-03-15T19:26:22.905Z,8.20
2019-03-15T19:28:53.892Z,8.20
2019-03-15T19:31:24.879Z,8.20
2019-03-15T19:33:55.787Z,8.30
2019-03-15T19:36:29.512Z,8.30
2019-03-15T19:39:01.107Z,8.30
2019-03-15T19:41:33.380Z,8.30
2019-03-15T19:44:04.884Z,8.30
2019-03-15T19:46:36.028Z,8.30
2019-03-15T19:49:07.335Z,8.30
2019-03-15T19:51:39.318Z,8.30
2019-03-15T19:54:11.467Z,8.20
2019-03-15T19:56:42.687Z,8.20
2019-03-15T19:59:13.830Z,8.30
2019-03-15T20:01:45.353Z,8.30
2019-03-15T20:04:16.445Z,8.30
2019-03-15T20:06:49.840Z,8.30
2019-03-15T20:09:20.945Z,8.30
2019-03-15T20:11:53.746Z,8.30
2019-03-15T20:14:25.094Z,8.30
2019-03-15T20:16:56.307Z,8.30
2019-03-15T20:19:27.243Z,8.30
2019-03-15T20:21:58.408Z,8.40
2019-03-15T20:24:29.325Z,8.40
2019-03-15T20:27:01.558Z,8.40
2019-03-15T20:29:33.031Z,8.40
2019-03-15T20:32:04.408Z,8.40
2019-03-15T20:34:35.803Z,8.40
2019-03-15T20:37:06.944Z,8.50
2019-03-15T20:39:38.316Z,8.40
2019-03-15T20:42:09.459Z,8.50
2019-03-15T20:44:41.139Z,8.50
2019-03-15T20:47:12.069Z,8.50
2019-03-15T20:49:44.267Z,8.50
2019-03-15T20:52:15.437Z,8.40
2019-03-15T20:54:46.604Z,8.50
2019-03-15T20:57:18.035Z,8.50
2019-03-15T20:59:48.931Z,8.50
2019-03-15T21:02:19.988Z,8.50
2019-03-15T21:04:51.352Z,8.50
2019-03-15T21:07:22.534Z,8.50
2019-03-15T21:09:53.783Z,8.50
2019-03-15T21:12:24.683Z,8.50
2019-03-15T21:14:55.800Z,8.50
2019-03-15T21:17:26.932Z,8.50
2019-03-15T21:19:58.051Z,8.40
2019-03-15T21:22:29.460Z,8.50
2019-03-15T21:25:00.589Z,8.40
2019-03-15T21:27:31.752Z,8.40
2019-03-15T21:30:02.630Z,8.40
2019-03-15T21:32:33.683Z,8.50
2019-03-15T21:35:05.278Z,8.50
2019-03-15T21:37:36.432Z,8.50
2019-03-15T21:40:08.743Z,8.50
2019-03-15T21:42:39.952Z,8.40
2019-03-15T21:45:10.928Z,8.40
2019-03-15T21:47:41.912Z,8.40
2019-03-15T21:50:13.037Z,8.40
2019-03-15T21:52:44.459Z,8.40
2019-03-15T21:55:15.347Z,8.30
2019-03-15T21:57:46.670Z,8.30
2019-03-15T22:00:18.789Z,8.30
2019-03-15T22:02:50.380Z,8.30
2019-03-15T22:05:21.503Z,8.20
2019-03-15T22:07:53.139Z,8.20
2019-03-15T22:10:24.549Z,8.20
2019-03-15T22:12:55.837Z,8.20
2019-03-15T22:15:27.303Z,8.10
2019-03-15T22:17:58.543Z,8.10
2019-03-15T22:20:29.937Z,8.10
2019-03-15T22:23:00.831Z,8.00
2019-03-15T22:25:31.699Z,8.00
2019-03-15T22:28:03.642Z,8.00
2019-03-15T22:30:34.843Z,8.00
2019-03-15T22:33:05.972Z,8.00
2019-03-15T22:35:36.843Z,8.00
2019-03-15T22:38:08.033Z,8.00
2019-03-15T22:40:39.327Z,8.10
2019-03-15T22:43:10.488Z,8.10
2019-03-15T22:45:41.599Z,8.10
2019-03-15T22:48:12.731Z,8.10
2019-03-15T22:50:43.867Z,8.20
2019-03-15T22:53:15.008Z,8.10
2019-03-15T22:55:46.125Z,8.10
2019-03-15T22:58:17.268Z,8.20
2019-03-15T23:00:49.503Z,8.20
2019-03-15T23:03:21.017Z,8.20
2019-03-15T23:05:52.120Z,8.20
2019-03-15T23:08:23.243Z,8.20
2019-03-15T23:10:54.371Z,8.20
2019-03-15T23:13:25.551Z,8.20
2019-03-15T23:15:56.695Z,8.30
2019-03-15T23:18:27.591Z,8.30
2019-03-15T23:20:58.746Z,8.30
2019-03-15T23:23:31.108Z,8.30
2019-03-15T23:26:02.551Z,8.30
2019-03-15T23:28:33.692Z,8.30
2019-03-15T23:31:04.653Z,8.30
2019-03-15T23:33:35.792Z,8.30
2019-03-15T23:36:06.905Z,8.30
2019-03-15T23:38:38.303Z,8.30
2019-03-15T23:41:09.424Z,8.30
2019-03-15T23:43:40.567Z,8.30
2019-03-15T23:46:11.458Z,8.30
2019-03-15T23:48:42.594Z,8.40
2019-03-15T23:51:13.722Z,8.40
2019-03-15T23:53:45.117Z,8.40
2019-03-15T23:56:15.964Z,8.40
2019-03-15T23:58:46.890Z,8.40
